EDT,Max TemperatureF,Mean TemperatureF,Min TemperatureF,Max Dew PointF,MeanDew PointF,Min DewpointF,Max Humidity, Mean Humidity, Min Humidity, Max Sea Level PressureIn, Mean Sea Level PressureIn, Min Sea Level PressureIn, Max VisibilityMiles, Mean VisibilityMiles, Min VisibilityMiles, Max Wind SpeedMPH, Mean Wind SpeedMPH, Max Gust SpeedMPH,PrecipitationIn, CloudCover, Events, WindDirDegrees
2013-3-1,36,33,29,30,28,27,89,77,64,29.89,29.85,29.79,10,10,10,16,9,22,T,8,,299
2013-3-2,30,27,23,27,23,18,85,74,63,29.90,29.86,29.83,10,10,5,15,9,22,T,8,Snow,300
2013-3-3,27,24,21,21,19,18,81,75,68,29.95,29.90,29.86,10,9,1,21,11,28,0.01,8,Snow,297
2013-3-4,42,31,20,25,17,14,81,56,30,30.07,30.02,29.94,10,10,2,18,9,30,T,3,Snow,294
2013-3-5,46,37,28,37,33,21,100,73,46,30.05,29.88,29.61,10,8,2,12,4,17,0.50,7,Rain-Snow,87
2013-3-6,35,31,26,36,30,25,100,89,78,30.09,29.82,29.61,10,9,2,22,14,35,0.05,8,Snow,301
2013-3-7,34,32,29,30,29,27,92,81,70,30.25,30.17,30.07,10,10,7,17,9,28,T,8,,299
2013-3-8,44,35,26,28,27,25,85,67,49,30.33,30.26,30.20,10,10,10,17,10,27,T,4,,313
2013-3-9,58,39,20,34,29,25,100,67,33,30.35,30.29,30.24,10,10,10,8,3,,0.00,0,,94
2013-3-10,64,46,27,37,34,28,89,63,37,30.29,30.24,30.18,10,10,10,12,4,16,0.00,0,,121
2013-3-11,53,45,36,54,42,34,100,80,59,30.20,30.04,29.89,10,10,4,13,6,22,0.28,5,Rain,124
2013-3-12,51,43,34,54,42,32,100,81,61,30.00,29.89,29.76,10,9,0,18,8,25,0.56,5,Rain,287
2013-3-13,38,31,24,36,27,19,85,67,48,30.13,30.03,29.98,10,9,0,21,12,30,0.01,5,Snow,288
2013-3-14,42,32,22,21,19,18,81,60,38,30.23,30.16,30.12,10,10,1,21,12,30,T,3,Snow,293
2013-3-15,58,42,26,37,29,18,69,55,40,30.15,30.01,29.89,10,10,10,13,7,23,0.00,0,,262
2013-3-16,70,52,34,57,46,36,100,72,44,29.89,29.79,29.67,10,10,7,16,6,27,0.16,2,Rain-Thunderstorm,255
2013-3-17,53,43,32,52,44,36,100,90,80,30.15,30.03,29.90,10,5,0,9,6,9,0.48,7,Fog-Rain-Snow,90
2013-3-18,32,30,28,36,34,32,100,100,100,30.15,30.05,29.86,10,4,1,13,6,18,0.27,8,Snow,91
2013-3-19,53,42,31,41,27,9,100,62,23,30.04,29.91,29.80,10,8,0,22,11,36,0.00,3,Fog,280
2013-3-20,48,37,26,32,17,10,96,60,24,30.06,29.94,29.79,10,10,2,15,8,25,T,1,Snow,270
2013-3-21,30,24,18,28,19,14,85,69,53,29.95,29.83,29.76,10,9,2,21,11,30,T,7,Snow,301
2013-3-22,44,30,16,19,16,12,77,55,33,30.02,29.96,29.92,10,10,10,10,6,18,0.00,0,,276
2013-3-23,51,37,23,32,25,18,78,59,39,30.02,29.97,29.91,10,10,10,8,3,16,0.00,5,,282
2013-3-24,37,32,27,34,30,25,100,77,54,29.93,29.73,29.54,10,6,0,13,7,16,0.47,6,Rain-Snow,82
2013-3-25,34,30,26,34,29,27,100,82,64,29.77,29.59,29.49,10,7,1,15,7,27,0.07,7,Snow,282
2013-3-26,37,33,29,34,29,27,89,80,70,30.11,29.93,29.77,10,9,4,14,10,23,T,8,Snow,295
2013-3-27,39,33,27,30,28,25,89,74,59,30.21,30.16,30.10,10,10,2,15,10,22,0.01,8,Snow,297
2013-3-28,45,38,30,30,27,25,89,67,45,30.27,30.22,30.18,10,10,2,16,9,22,T,6,Snow,302
2013-3-29,54,39,24,34,28,25,92,64,35,30.30,30.25,30.18,10,10,10,15,4,23,0.00,2,,288
2013-3-30,58,41,24,37,32,28,100,68,35,30.26,30.17,30.08,10,10,4,6,2,16,0.00,1,,242
2013-3-31,54,47,39,54,46,32,100,83,65,30.08,29.91,29.82,10,8,2,13,3,20,0.45,6,Rain,259